sensor_id;sensor_type;location;lat;lon;timestamp;temperature;humidity
5705;DHT22;2877;48.238;11.160;2024-03-29T00:00:53;3.80;99.90
5705;DHT22;2877;48.238;11.160;2024-03-29T00:03:18;3.80;99.90
5705;DHT22;2877;48.238;11.160;2024-03-29T00:05:44;3.80;99.90
5705;DHT22;2877;48.238;11.160;2024-03-29T00:08:10;3.80;99.90
5705;DHT22;2877;48.238;11.160;2024-03-29T00:10:36;3.80;99.90
5705;DHT22;2877;48.238;11.160;2024-03-29T00:13:01;3.70;99.90
5705;DHT22;2877;48.238;11.160;2024-03-29T00:15:27;3.70;99.90
5705;DHT22;2877;48.238;11.160;2024-03-29T00:17:52;3.70;99.90
5705;DHT22;2877;48.238;11.160;2024-03-29T00:20:18;3.70;99.90
5705;DHT22;2877;48.238;11.160;2024-03-29T00:22:45;3.60;99.90
5705;DHT22;2877;48.238;11.160;2024-03-29T00:25:10;3.60;99.90
5705;DHT22;2877;48.238;11.160;2024-03-29T00:27:36;3.60;99.90
5705;DHT22;2877;48.238;11.160;2024-03-29T00:30:02;3.60;99.90
5705;DHT22;2877;48.238;11.160;2024-03-29T00:32:28;3.60;99.90
5705;DHT22;2877;48.238;11.160;2024-03-29T00:34:53;3.60;99.90
5705;DHT22;2877;48.238;11.160;2024-03-29T00:37:20;3.60;99.90
5705;DHT22;2877;48.238;11.160;2024-03-29T00:39:45;3.50;99.90
5705;DHT22;2877;48.238;11.160;2024-03-29T00:42:11;3.50;99.90
5705;DHT22;2877;48.238;11.160;2024-03-29T00:44:41;3.60;99.90
5705;DHT22;2877;48.238;11.160;2024-03-29T00:47:08;3.50;99.90
5705;DHT22;2877;48.238;11.160;2024-03-29T00:49:33;3.70;99.90
5705;DHT22;2877;48.238;11.160;2024-03-29T00:51:59;3.60;99.90
5705;DHT22;2877;48.238;11.160;2024-03-29T00:54:25;3.50;99.90
5705;DHT22;2877;48.238;11.160;2024-03-29T00:56:51;3.50;99.90
5705;DHT22;2877;48.238;11.160;2024-03-29T00:59:17;3.50;99.90
5705;DHT22;2877;48.238;11.160;2024-03-29T01:01:42;3.40;99.90
5705;DHT22;2877;48.238;11.160;2024-03-29T01:04:08;3.30;99.90
5705;DHT22;2877;48.238;11.160;2024-03-29T01:06:34;3.30;99.90
5705;DHT22;2877;48.238;11.160;2024-03-29T01:09:00;3.30;99.90
5705;DHT22;2877;48.238;11.160;2024-03-29T01:11:26;3.30;99.90
5705;DHT22;2877;48.238;11.160;2024-03-29T01:13:52;3.30;99.90
5705;DHT22;2877;48.238;11.160;2024-03-29T01:16:18;3.40;99.90
5705;DHT22;2877;48.238;11.160;2024-03-29T01:18:43;3.50;99.90
5705;DHT22;2877;48.238;11.160;2024-03-29T01:21:09;3.60;99.90
5705;DHT22;2877;48.238;11.160;2024-03-29T01:23:35;3.60;99.90
5705;DHT22;2877;48.238;11.160;2024-03-29T01:26:01;3.60;99.90
5705;DHT22;2877;48.238;11.160;2024-03-29T01:28:26;3.40;99.90
5705;DHT22;2877;48.238;11.160;2024-03-29T01:30:52;3.40;99.90
5705;DHT22;2877;48.238;11.160;2024-03-29T01:33:18;3.30;99.90
5705;DHT22;2877;48.238;11.160;2024-03-29T01:35:44;3.30;99.90
5705;DHT22;2877;48.238;11.160;2024-03-29T01:38:09;3.30;99.90
5705;DHT22;2877;48.238;11.160;2024-03-29T01:40:35;3.20;99.90
5705;DHT22;2877;48.238;11.160;2024-03-29T01:43:01;3.20;99.90
5705;DHT22;2877;48.238;11.160;2024-03-29T01:45:27;3.20;99.90
5705;DHT22;2877;48.238;11.160;2024-03-29T01:47:53;3.10;99.90
5705;DHT22;2877;48.238;11.160;2024-03-29T01:50:19;3.00;99.90
5705;DHT22;2877;48.238;11.160;2024-03-29T01:52:44;3.00;99.90
5705;DHT22;2877;48.238;11.160;2024-03-29T01:55:11;2.90;99.90
5705;DHT22;2877;48.238;11.160;2024-03-29T01:57:36;2.80;99.90
5705;DHT22;2877;48.238;11.160;2024-03-29T02:00:02;2.70;99.90
5705;DHT22;2877;48.238;11.160;2024-03-29T02:02:31;2.70;99.90
5705;DHT22;2877;48.238;11.160;2024-03-29T02:04:57;2.70;99.90
5705;DHT22;2877;48.238;11.160;2024-03-29T02:07:23;2.70;99.90
5705;DHT22;2877;48.238;11.160;2024-03-29T02:09:49;2.70;99.90
5705;DHT22;2877;48.238;11.160;2024-03-29T02:12:14;2.60;99.90
5705;DHT22;2877;48.238;11.160;2024-03-29T02:14:40;2.60;99.90
5705;DHT22;2877;48.238;11.160;2024-03-29T02:17:08;2.60;99.90
5705;DHT22;2877;48.238;11.160;2024-03-29T02:19:34;2.60;99.90
5705;DHT22;2877;48.238;11.160;2024-03-29T02:22:00;2.50;99.90
5705;DHT22;2877;48.238;11.160;2024-03-29T02:24:27;2.60;99.90
5705;DHT22;2877;48.238;11.160;2024-03-29T02:26:54;2.60;99.90
5705;DHT22;2877;48.238;11.160;2024-03-29T02:29:21;2.60;99.90
5705;DHT22;2877;48.238;11.160;2024-03-29T02:31:47;2.60;99.90
5705;DHT22;2877;48.238;11.160;2024-03-29T02:34:12;2.60;99.90
5705;DHT22;2877;48.238;11.160;2024-03-29T02:36:38;2.50;99.90
5705;DHT22;2877;48.238;11.160;2024-03-29T02:39:04;2.50;99.90
5705;DHT22;2877;48.238;11.160;2024-03-29T02:41:29;2.50;99.90
5705;DHT22;2877;48.238;11.160;2024-03-29T02:43:55;2.40;99.90
5705;DHT22;2877;48.238;11.160;2024-03-29T02:46:21;2.50;99.90
5705;DHT22;2877;48.238;11.160;2024-03-29T02:48:47;2.50;99.90
5705;DHT22;2877;48.238;11.160;2024-03-29T02:51:12;2.60;99.90
5705;DHT22;2877;48.238;11.160;2024-03-29T02:53:38;2.60;99.90
5705;DHT22;2877;48.238;11.160;2024-03-29T02:56:04;2.70;99.90
5705;DHT22;2877;48.238;11.160;2024-03-29T02:58:34;2.60;99.90
5705;DHT22;2877;48.238;11.160;2024-03-29T03:01:08;2.60;99.90
5705;DHT22;2877;48.238;11.160;2024-03-29T03:03:35;2.50;99.90
5705;DHT22;2877;48.238;11.160;2024-03-29T03:06:01;2.50;99.90
5705;DHT22;2877;48.238;11.160;2024-03-29T03:08:28;2.40;99.90
5705;DHT22;2877;48.238;11.160;2024-03-29T03:11:13;2.40;99.90
5705;DHT22;2877;48.238;11.160;2024-03-29T03:13:38;2.30;99.90
5705;DHT22;2877;48.238;11.160;2024-03-29T03:16:04;2.20;99.90
5705;DHT22;2877;48.238;11.160;2024-03-29T03:18:30;2.20;99.90
5705;DHT22;2877;48.238;11.160;2024-03-29T03:20:56;2.20;99.90
5705;DHT22;2877;48.238;11.160;2024-03-29T03:23:25;2.10;99.90
5705;DHT22;2877;48.238;11.160;2024-03-29T03:26:02;2.00;99.90
5705;DHT22;2877;48.238;11.160;2024-03-29T03:28:31;2.00;99.90
5705;DHT22;2877;48.238;11.160;2024-03-29T03:30:57;2.10;99.90
5705;DHT22;2877;48.238;11.160;2024-03-29T03:33:22;2.10;99.90
5705;DHT22;2877;48.238;11.160;2024-03-29T03:35:48;2.10;99.90
5705;DHT22;2877;48.238;11.160;2024-03-29T03:38:14;2.10;99.90
5705;DHT22;2877;48.238;11.160;2024-03-29T03:40:40;2.10;99.90
5705;DHT22;2877;48.238;11.160;2024-03-29T03:43:07;2.10;99.90
5705;DHT22;2877;48.238;11.160;2024-03-29T03:45:36;2.10;99.90
5705;DHT22;2877;48.238;11.160;2024-03-29T03:48:03;2.10;99.90
5705;DHT22;2877;48.238;11.160;2024-03-29T03:50:29;2.00;99.90
5705;DHT22;2877;48.238;11.160;2024-03-29T03:52:55;2.00;99.90
5705;DHT22;2877;48.238;11.160;2024-03-29T03:55:20;2.00;99.90
5705;DHT22;2877;48.238;11.160;2024-03-29T03:57:46;2.10;99.90
5705;DHT22;2877;48.238;11.160;2024-03-29T04:00:12;2.00;99.90
5705;DHT22;2877;48.238;11.160;2024-03-29T04:02:38;2.00;99.90
5705;DHT22;2877;48.238;11.160;2024-03-29T04:05:03;2.00;99.90
5705;DHT22;2877;48.238;11.160;2024-03-29T04:07:29;1.90;99.90
5705;DHT22;2877;48.238;11.160;2024-03-29T04:09:54;1.80;99.90
5705;DHT22;2877;48.238;11.160;2024-03-29T04:12:20;1.80;99.90
5705;DHT22;2877;48.238;11.160;2024-03-29T04:14:46;1.80;99.90
5705;DHT22;2877;48.238;11.160;2024-03-29T04:17:11;1.80;99.90
5705;DHT22;2877;48.238;11.160;2024-03-29T04:19:37;1.80;99.90
5705;DHT22;2877;48.238;11.160;2024-03-29T04:22:03;1.90;99.90
5705;DHT22;2877;48.238;11.160;2024-03-29T04:24:28;1.90;99.90
5705;DHT22;2877;48.238;11.160;2024-03-29T04:26:54;1.90;99.90
5705;DHT22;2877;48.238;11.160;2024-03-29T04:29:20;1.90;99.90
5705;DHT22;2877;48.238;11.160;2024-03-29T04:31:45;2.00;99.90
5705;DHT22;2877;48.238;11.160;2024-03-29T04:34:11;2.10;99.90
5705;DHT22;2877;48.238;11.160;2024-03-29T04:36:37;2.20;99.90
5705;DHT22;2877;48.238;11.160;2024-03-29T04:39:02;2.20;99.90
5705;DHT22;2877;48.238;11.160;2024-03-29T04:41:28;2.20;99.90
5705;DHT22;2877;48.238;11.160;2024-03-29T04:43:54;2.20;99.90
5705;DHT22;2877;48.238;11.160;2024-03-29T04:46:19;2.10;99.90
5705;DHT22;2877;48.238;11.160;2024-03-29T04:48:45;2.10;99.90
5705;DHT22;2877;48.238;11.160;2024-03-29T04:51:13;2.10;99.90
5705;DHT22;2877;48.238;11.160;2024-03-29T04:53:39;2.00;99.90
5705;DHT22;2877;48.238;11.160;2024-03-29T04:56:05;2.00;99.90
5705;DHT22;2877;48.238;11.160;2024-03-29T04:58:31;2.00;99.90
5705;DHT22;2877;48.238;11.160;2024-03-29T05:00:57;2.00;99.90
5705;DHT22;2877;48.238;11.160;2024-03-29T05:03:23;2.20;99.90
5705;DHT22;2877;48.238;11.160;2024-03-29T05:05:52;2.20;99.90
5705;DHT22;2877;48.238;11.160;2024-03-29T05:08:18;2.30;99.90
5705;DHT22;2877;48.238;11.160;2024-03-29T05:10:45;2.50;99.90
5705;DHT22;2877;48.238;11.160;2024-03-29T05:13:11;2.60;99.90
5705;DHT22;2877;48.238;11.160;2024-03-29T05:15:37;2.80;99.90
5705;DHT22;2877;48.238;11.160;2024-03-29T05:18:02;2.90;99.90
5705;DHT22;2877;48.238;11.160;2024-03-29T05:20:29;3.00;99.90
5705;DHT22;2877;48.238;11.160;2024-03-29T05:22:54;3.10;99.90
5705;DHT22;2877;48.238;11.160;2024-03-29T05:25:20;3.20;99.90
5705;DHT22;2877;48.238;11.160;2024-03-29T05:27:45;3.30;99.90
5705;DHT22;2877;48.238;11.160;2024-03-29T05:30:11;3.40;99.90
5705;DHT22;2877;48.238;11.160;2024-03-29T05:32:38;3.50;99.90
5705;DHT22;2877;48.238;11.160;2024-03-29T05:35:04;3.60;99.90
5705;DHT22;2877;48.238;11.160;2024-03-29T05:37:30;3.60;99.90
5705;DHT22;2877;48.238;11.160;2024-03-29T05:39:55;3.70;99.90
5705;DHT22;2877;48.238;11.160;2024-03-29T05:42:30;3.70;99.90
5705;DHT22;2877;48.238;11.160;2024-03-29T05:44:56;3.70;99.90
5705;DHT22;2877;48.238;11.160;2024-03-29T05:47:22;3.80;99.90
5705;DHT22;2877;48.238;11.160;2024-03-29T05:49:48;3.80;99.90
5705;DHT22;2877;48.238;11.160;2024-03-29T05:52:14;3.90;99.90
5705;DHT22;2877;48.238;11.160;2024-03-29T05:54:41;3.90;99.90
5705;DHT22;2877;48.238;11.160;2024-03-29T05:57:06;4.00;99.90
5705;DHT22;2877;48.238;11.160;2024-03-29T05:59:33;4.10;99.90
5705;DHT22;2877;48.238;11.160;2024-03-29T06:01:59;4.20;99.90
5705;DHT22;2877;48.238;11.160;2024-03-29T06:04:25;4.30;99.90
5705;DHT22;2877;48.238;11.160;2024-03-29T06:07:00;4.40;99.90
5705;DHT22;2877;48.238;11.160;2024-03-29T06:09:26;4.40;99.90
5705;DHT22;2877;48.238;11.160;2024-03-29T06:11:55;4.60;99.90
5705;DHT22;2877;48.238;11.160;2024-03-29T06:14:21;4.70;99.90
5705;DHT22;2877;48.238;11.160;2024-03-29T06:17:06;4.80;99.90
5705;DHT22;2877;48.238;11.160;2024-03-29T06:19:53;4.90;99.90
5705;DHT22;2877;48.238;11.160;2024-03-29T06:22:23;5.00;99.90
5705;DHT22;2877;48.238;11.160;2024-03-29T06:24:50;5.10;99.90
5705;DHT22;2877;48.238;11.160;2024-03-29T06:27:17;5.20;99.90
5705;DHT22;2877;48.238;11.160;2024-03-29T06:29:43;5.20;99.90
5705;DHT22;2877;48.238;11.160;2024-03-29T06:32:09;5.20;99.90
5705;DHT22;2877;48.238;11.160;2024-03-29T06:34:35;5.20;99.90
5705;DHT22;2877;48.238;11.160;2024-03-29T06:37:01;5.40;99.90
5705;DHT22;2877;48.238;11.160;2024-03-29T06:39:26;5.50;99.90
5705;DHT22;2877;48.238;11.160;2024-03-29T06:41:52;5.60;99.90
5705;DHT22;2877;48.238;11.160;2024-03-29T06:44:18;5.70;99.90
5705;DHT22;2877;48.238;11.160;2024-03-29T06:46:43;5.80;99.90
5705;DHT22;2877;48.238;11.160;2024-03-29T06:49:09;6.00;99.90
5705;DHT22;2877;48.238;11.160;2024-03-29T06:51:34;6.10;99.90
5705;DHT22;2877;48.238;11.160;2024-03-29T06:54:00;6.20;99.90
5705;DHT22;2877;48.238;11.160;2024-03-29T06:56:25;6.40;99.90
5705;DHT22;2877;48.238;11.160;2024-03-29T06:58:51;6.60;99.90
5705;DHT22;2877;48.238;11.160;2024-03-29T07:01:17;6.70;99.90
5705;DHT22;2877;48.238;11.160;2024-03-29T07:03:42;6.70;99.90
5705;DHT22;2877;48.238;11.160;2024-03-29T07:06:08;6.70;99.90
5705;DHT22;2877;48.238;11.160;2024-03-29T07:08:34;6.70;99.90
5705;DHT22;2877;48.238;11.160;2024-03-29T07:11:00;6.90;99.90
5705;DHT22;2877;48.238;11.160;2024-03-29T07:13:28;7.10;99.90
5705;DHT22;2877;48.238;11.160;2024-03-29T07:15:55;7.20;99.90
5705;DHT22;2877;48.238;11.160;2024-03-29T07:18:20;7.40;99.90
5705;DHT22;2877;48.238;11.160;2024-03-29T07:20:46;7.50;99.90
5705;DHT22;2877;48.238;11.160;2024-03-29T07:23:12;7.70;99.90
5705;DHT22;2877;48.238;11.160;2024-03-29T07:25:38;7.80;99.90
5705;DHT22;2877;48.238;11.160;2024-03-29T07:28:03;7.90;99.90
5705;DHT22;2877;48.238;11.160;2024-03-29T07:30:29;8.00;99.90
5705;DHT22;2877;48.238;11.160;2024-03-29T07:32:55;8.10;99.90
5705;DHT22;2877;48.238;11.160;2024-03-29T07:35:20;8.20;99.90
5705;DHT22;2877;48.238;11.160;2024-03-29T07:37:46;8.30;99.90
5705;DHT22;2877;48.238;11.160;2024-03-29T07:40:14;8.50;99.90
5705;DHT22;2877;48.238;11.160;2024-03-29T07:42:40;8.70;99.90
5705;DHT22;2877;48.238;11.160;2024-03-29T07:45:06;8.60;99.90
5705;DHT22;2877;48.238;11.160;2024-03-29T07:47:32;8.60;99.90
5705;DHT22;2877;48.238;11.160;2024-03-29T07:49:57;8.70;99.90
5705;DHT22;2877;48.238;11.160;2024-03-29T07:52:23;8.90;99.90
5705;DHT22;2877;48.238;11.160;2024-03-29T07:54:48;9.10;99.90
5705;DHT22;2877;48.238;11.160;2024-03-29T07:57:14;9.50;99.90
5705;DHT22;2877;48.238;11.160;2024-03-29T07:59:41;9.70;99.90
5705;DHT22;2877;48.238;11.160;2024-03-29T08:02:07;9.90;99.90
5705;DHT22;2877;48.238;11.160;2024-03-29T08:04:32;10.00;99.90
5705;DHT22;2877;48.238;11.160;2024-03-29T08:06:58;10.10;99.90
5705;DHT22;2877;48.238;11.160;2024-03-29T08:09:24;10.50;99.90
5705;DHT22;2877;48.238;11.160;2024-03-29T08:11:50;10.80;99.90
5705;DHT22;2877;48.238;11.160;2024-03-29T08:14:15;11.00;99.90
5705;DHT22;2877;48.238;11.160;2024-03-29T08:16:41;11.30;99.90
5705;DHT22;2877;48.238;11.160;2024-03-29T08:19:08;11.40;99.90
5705;DHT22;2877;48.238;11.160;2024-03-29T08:21:33;11.60;99.90
5705;DHT22;2877;48.238;11.160;2024-03-29T08:23:59;11.80;99.90
5705;DHT22;2877;48.238;11.160;2024-03-29T08:26:26;12.10;99.90
5705;DHT22;2877;48.238;11.160;2024-03-29T08:28:54;12.50;99.90
5705;DHT22;2877;48.238;11.160;2024-03-29T08:31:19;12.80;99.90
5705;DHT22;2877;48.238;11.160;2024-03-29T08:33:45;12.80;99.90
5705;DHT22;2877;48.238;11.160;2024-03-29T08:36:10;12.70;99.90
5705;DHT22;2877;48.238;11.160;2024-03-29T08:38:37;12.60;99.90
5705;DHT22;2877;48.238;11.160;2024-03-29T08:41:06;12.40;99.90
5705;DHT22;2877;48.238;11.160;2024-03-29T08:43:33;12.10;99.90
5705;DHT22;2877;48.238;11.160;2024-03-29T08:45:58;12.00;99.90
5705;DHT22;2877;48.238;11.160;2024-03-29T08:48:24;12.10;99.90
5705;DHT22;2877;48.238;11.160;2024-03-29T08:50:52;12.10;99.90
5705;DHT22;2877;48.238;11.160;2024-03-29T08:53:18;11.90;99.90
5705;DHT22;2877;48.238;11.160;2024-03-29T08:55:46;11.90;99.90
5705;DHT22;2877;48.238;11.160;2024-03-29T08:58:13;11.90;99.90
5705;DHT22;2877;48.238;11.160;2024-03-29T09:00:39;12.10;99.90
5705;DHT22;2877;48.238;11.160;2024-03-29T09:03:05;12.20;99.90
5705;DHT22;2877;48.238;11.160;2024-03-29T09:05:31;12.30;99.90
5705;DHT22;2877;48.238;11.160;2024-03-29T09:07:56;12.30;99.90
5705;DHT22;2877;48.238;11.160;2024-03-29T09:10:23;12.30;99.90
5705;DHT22;2877;48.238;11.160;2024-03-29T09:12:49;12.40;99.90
5705;DHT22;2877;48.238;11.160;2024-03-29T09:15:15;12.50;99.90
5705;DHT22;2877;48.238;11.160;2024-03-29T09:17:42;12.60;99.90
5705;DHT22;2877;48.238;11.160;2024-03-29T09:20:08;12.80;99.90
5705;DHT22;2877;48.238;11.160;2024-03-29T09:22:34;13.10;99.90
5705;DHT22;2877;48.238;11.160;2024-03-29T09:25:00;13.20;99.90
5705;DHT22;2877;48.238;11.160;2024-03-29T09:27:26;13.30;99.90
5705;DHT22;2877;48.238;11.160;2024-03-29T09:29:52;13.50;99.90
5705;DHT22;2877;48.238;11.160;2024-03-29T09:32:18;13.60;99.90
5705;DHT22;2877;48.238;11.160;2024-03-29T09:34:45;13.60;99.90
5705;DHT22;2877;48.238;11.160;2024-03-29T09:37:11;13.80;99.90
5705;DHT22;2877;48.238;11.160;2024-03-29T09:39:36;13.80;99.90
5705;DHT22;2877;48.238;11.160;2024-03-29T09:42:03;13.90;99.90
5705;DHT22;2877;48.238;11.160;2024-03-29T09:44:33;13.80;99.90
5705;DHT22;2877;48.238;11.160;2024-03-29T09:47:04;13.80;99.90
5705;DHT22;2877;48.238;11.160;2024-03-29T09:49:33;13.80;99.90
5705;DHT22;2877;48.238;11.160;2024-03-29T09:51:59;13.90;99.90
5705;DHT22;2877;48.238;11.160;2024-03-29T09:54:29;13.90;99.90
5705;DHT22;2877;48.238;11.160;2024-03-29T09:56:56;13.80;99.90
5705;DHT22;2877;48.238;11.160;2024-03-29T09:59:23;14.00;99.90
5705;DHT22;2877;48.238;11.160;2024-03-29T10:01:50;14.10;99.90
5705;DHT22;2877;48.238;11.160;2024-03-29T10:04:17;14.40;99.90
5705;DHT22;2877;48.238;11.160;2024-03-29T10:06:46;14.70;99.90
5705;DHT22;2877;48.238;11.160;2024-03-29T10:09:13;14.90;99.90
5705;DHT22;2877;48.238;11.160;2024-03-29T10:11:39;14.90;99.90
5705;DHT22;2877;48.238;11.160;2024-03-29T10:14:04;15.00;99.90
5705;DHT22;2877;48.238;11.160;2024-03-29T10:16:31;15.00;99.90
5705;DHT22;2877;48.238;11.160;2024-03-29T10:18:58;15.10;99.90
5705;DHT22;2877;48.238;11.160;2024-03-29T10:21:27;15.20;99.90
5705;DHT22;2877;48.238;11.160;2024-03-29T10:23:53;15.20;99.90
5705;DHT22;2877;48.238;11.160;2024-03-29T10:26:19;15.50;99.90
5705;DHT22;2877;48.238;11.160;2024-03-29T10:28:47;15.60;99.90
5705;DHT22;2877;48.238;11.160;2024-03-29T10:31:13;15.70;99.90
5705;DHT22;2877;48.238;11.160;2024-03-29T10:33:42;15.70;99.90
5705;DHT22;2877;48.238;11.160;2024-03-29T10:36:08;15.90;99.90
5705;DHT22;2877;48.238;11.160;2024-03-29T10:38:35;15.90;99.90
5705;DHT22;2877;48.238;11.160;2024-03-29T10:41:01;15.90;99.90
5705;DHT22;2877;48.238;11.160;2024-03-29T10:43:29;16.10;99.90
5705;DHT22;2877;48.238;11.160;2024-03-29T10:45:55;16.20;99.90
5705;DHT22;2877;48.238;11.160;2024-03-29T10:48:28;16.40;99.90
5705;DHT22;2877;48.238;11.160;2024-03-29T10:50:58;16.60;99.90
5705;DHT22;2877;48.238;11.160;2024-03-29T10:53:24;16.70;99.90
5705;DHT22;2877;48.238;11.160;2024-03-29T10:55:58;16.70;99.90
5705;DHT22;2877;48.238;11.160;2024-03-29T10:58:28;16.90;99.90
5705;DHT22;2877;48.238;11.160;2024-03-29T11:00:57;16.80;99.90
5705;DHT22;2877;48.238;11.160;2024-03-29T11:03:40;16.80;99.90
5705;DHT22;2877;48.238;11.160;2024-03-29T11:06:12;16.90;99.90
5705;DHT22;2877;48.238;11.160;2024-03-29T11:08:39;16.80;99.90
5705;DHT22;2877;48.238;11.160;2024-03-29T11:11:11;17.00;99.90
5705;DHT22;2877;48.238;11.160;2024-03-29T11:13:52;16.50;99.90
5705;DHT22;2877;48.238;11.160;2024-03-29T11:16:18;16.40;99.90
5705;DHT22;2877;48.238;11.160;2024-03-29T11:18:46;16.30;99.90
5705;DHT22;2877;48.238;11.160;2024-03-29T11:21:15;16.20;99.90
5705;DHT22;2877;48.238;11.160;2024-03-29T11:23:52;16.20;99.90
5705;DHT22;2877;48.238;11.160;2024-03-29T11:26:19;16.10;99.90
5705;DHT22;2877;48.238;11.160;2024-03-29T11:28:49;16.20;99.90
5705;DHT22;2877;48.238;11.160;2024-03-29T11:31:15;16.40;99.90
5705;DHT22;2877;48.238;11.160;2024-03-29T11:36:21;16.50;99.90
5705;DHT22;2877;48.238;11.160;2024-03-29T11:38:53;16.50;99.90
5705;DHT22;2877;48.238;11.160;2024-03-29T11:41:24;16.50;99.90
5705;DHT22;2877;48.238;11.160;2024-03-29T11:43:50;16.90;99.90
5705;DHT22;2877;48.238;11.160;2024-03-29T11:46:17;17.30;99.90
5705;DHT22;2877;48.238;11.160;2024-03-29T11:48:44;17.60;99.90
5705;DHT22;2877;48.238;11.160;2024-03-29T11:51:13;17.70;99.90
5705;DHT22;2877;48.238;11.160;2024-03-29T11:53:40;17.80;99.90
5705;DHT22;2877;48.238;11.160;2024-03-29T11:56:06;17.80;99.90
5705;DHT22;2877;48.238;11.160;2024-03-29T11:58:33;17.80;99.90
5705;DHT22;2877;48.238;11.160;2024-03-29T12:01:00;18.00;99.90
5705;DHT22;2877;48.238;11.160;2024-03-29T12:03:28;18.40;99.90
5705;DHT22;2877;48.238;11.160;2024-03-29T12:05:55;18.40;99.90
5705;DHT22;2877;48.238;11.160;2024-03-29T12:08:24;18.40;99.90
5705;DHT22;2877;48.238;11.160;2024-03-29T12:10:51;18.50;99.90
5705;DHT22;2877;48.238;11.160;2024-03-29T12:13:17;18.80;99.90
5705;DHT22;2877;48.238;11.160;2024-03-29T12:15:43;19.50;99.90
5705;DHT22;2877;48.238;11.160;2024-03-29T12:18:10;20.20;99.90
5705;DHT22;2877;48.238;11.160;2024-03-29T12:20:37;20.30;99.60
5705;DHT22;2877;48.238;11.160;2024-03-29T12:23:05;20.10;98.10
5705;DHT22;2877;48.238;11.160;2024-03-29T12:25:32;20.00;98.40
5705;DHT22;2877;48.238;11.160;2024-03-29T12:27:58;19.70;98.40
5705;DHT22;2877;48.238;11.160;2024-03-29T12:30:25;19.50;99.80
5705;DHT22;2877;48.238;11.160;2024-03-29T12:35:27;19.90;99.10
5705;DHT22;2877;48.238;11.160;2024-03-29T12:37:53;20.30;97.60
5705;DHT22;2877;48.238;11.160;2024-03-29T12:40:19;20.30;97.20
5705;DHT22;2877;48.238;11.160;2024-03-29T12:42:52;20.80;97.80
5705;DHT22;2877;48.238;11.160;2024-03-29T12:45:18;21.50;96.50
5705;DHT22;2877;48.238;11.160;2024-03-29T12:47:45;22.20;95.10
5705;DHT22;2877;48.238;11.160;2024-03-29T12:50:14;22.80;94.00
5705;DHT22;2877;48.238;11.160;2024-03-29T12:52:44;23.10;92.00
5705;DHT22;2877;48.238;11.160;2024-03-29T12:55:10;23.50;90.20
5705;DHT22;2877;48.238;11.160;2024-03-29T12:57:37;23.80;90.50
5705;DHT22;2877;48.238;11.160;2024-03-29T13:00:03;24.40;87.90
5705;DHT22;2877;48.238;11.160;2024-03-29T13:02:37;24.70;82.70
5705;DHT22;2877;48.238;11.160;2024-03-29T13:05:06;24.80;83.40
5705;DHT22;2877;48.238;11.160;2024-03-29T13:07:33;24.80;80.30
5705;DHT22;2877;48.238;11.160;2024-03-29T13:10:03;24.70;82.00
5705;DHT22;2877;48.238;11.160;2024-03-29T13:12:32;24.70;82.00
5705;DHT22;2877;48.238;11.160;2024-03-29T13:15:03;24.90;81.80
5705;DHT22;2877;48.238;11.160;2024-03-29T13:17:39;25.10;79.10
5705;DHT22;2877;48.238;11.160;2024-03-29T13:20:05;25.40;78.20
5705;DHT22;2877;48.238;11.160;2024-03-29T13:22:31;26.00;77.60
5705;DHT22;2877;48.238;11.160;2024-03-29T13:24:56;26.10;75.90
5705;DHT22;2877;48.238;11.160;2024-03-29T13:27:22;26.10;75.10
5705;DHT22;2877;48.238;11.160;2024-03-29T13:29:47;26.20;72.50
5705;DHT22;2877;48.238;11.160;2024-03-29T13:32:13;26.10;73.50
5705;DHT22;2877;48.238;11.160;2024-03-29T13:34:38;26.40;74.40
5705;DHT22;2877;48.238;11.160;2024-03-29T13:37:04;26.50;74.90
5705;DHT22;2877;48.238;11.160;2024-03-29T13:39:29;27.00;74.00
5705;DHT22;2877;48.238;11.160;2024-03-29T13:41:55;27.40;72.60
5705;DHT22;2877;48.238;11.160;2024-03-29T13:44:20;27.60;70.90
5705;DHT22;2877;48.238;11.160;2024-03-29T13:46:46;27.40;69.40
5705;DHT22;2877;48.238;11.160;2024-03-29T13:49:11;27.10;70.00
5705;DHT22;2877;48.238;11.160;2024-03-29T13:51:38;26.20;71.50
5705;DHT22;2877;48.238;11.160;2024-03-29T13:54:04;25.80;73.40
5705;DHT22;2877;48.238;11.160;2024-03-29T13:56:30;25.80;73.70
5705;DHT22;2877;48.238;11.160;2024-03-29T13:58:55;25.70;70.00
5705;DHT22;2877;48.238;11.160;2024-03-29T14:01:21;25.30;70.20
5705;DHT22;2877;48.238;11.160;2024-03-29T14:03:46;25.40;63.70
5705;DHT22;2877;48.238;11.160;2024-03-29T14:06:12;25.30;61.80
5705;DHT22;2877;48.238;11.160;2024-03-29T14:08:37;25.50;61.10
5705;DHT22;2877;48.238;11.160;2024-03-29T14:11:03;25.30;55.50
5705;DHT22;2877;48.238;11.160;2024-03-29T14:13:29;24.60;57.80
5705;DHT22;2877;48.238;11.160;2024-03-29T14:15:54;24.10;57.10
5705;DHT22;2877;48.238;11.160;2024-03-29T14:18:21;23.60;57.10
5705;DHT22;2877;48.238;11.160;2024-03-29T14:20:47;23.40;57.70
5705;DHT22;2877;48.238;11.160;2024-03-29T14:23:12;23.20;57.30
5705;DHT22;2877;48.238;11.160;2024-03-29T14:25:40;22.90;60.70
5705;DHT22;2877;48.238;11.160;2024-03-29T14:28:06;22.60;56.90
5705;DHT22;2877;48.238;11.160;2024-03-29T14:30:32;22.40;59.10
5705;DHT22;2877;48.238;11.160;2024-03-29T14:32:57;22.30;57.00
5705;DHT22;2877;48.238;11.160;2024-03-29T14:35:27;22.30;59.00
5705;DHT22;2877;48.238;11.160;2024-03-29T14:37:54;22.40;59.90
5705;DHT22;2877;48.238;11.160;2024-03-29T14:40:19;22.40;59.10
5705;DHT22;2877;48.238;11.160;2024-03-29T14:42:45;22.50;60.60
5705;DHT22;2877;48.238;11.160;2024-03-29T14:45:10;22.80;60.50
5705;DHT22;2877;48.238;11.160;2024-03-29T14:47:39;22.80;56.80
5705;DHT22;2877;48.238;11.160;2024-03-29T14:50:05;22.80;58.10
5705;DHT22;2877;48.238;11.160;2024-03-29T14:52:37;22.70;57.50
5705;DHT22;2877;48.238;11.160;2024-03-29T14:55:03;22.60;57.20
5705;DHT22;2877;48.238;11.160;2024-03-29T14:57:29;22.30;56.30
5705;DHT22;2877;48.238;11.160;2024-03-29T14:59:55;22.10;58.70
5705;DHT22;2877;48.238;11.160;2024-03-29T15:02:20;22.00;57.70
5705;DHT22;2877;48.238;11.160;2024-03-29T15:04:46;21.90;56.30
5705;DHT22;2877;48.238;11.160;2024-03-29T15:07:11;21.90;57.10
5705;DHT22;2877;48.238;11.160;2024-03-29T15:09:37;21.90;56.80
5705;DHT22;2877;48.238;11.160;2024-03-29T15:12:03;21.80;57.40
5705;DHT22;2877;48.238;11.160;2024-03-29T15:14:32;21.90;59.30
5705;DHT22;2877;48.238;11.160;2024-03-29T15:16:58;21.70;57.50
5705;DHT22;2877;48.238;11.160;2024-03-29T15:19:23;21.60;58.20
5705;DHT22;2877;48.238;11.160;2024-03-29T15:21:49;21.50;57.10
5705;DHT22;2877;48.238;11.160;2024-03-29T15:24:18;21.40;58.10
5705;DHT22;2877;48.238;11.160;2024-03-29T15:26:44;21.40;56.80
5705;DHT22;2877;48.238;11.160;2024-03-29T15:29:09;21.50;58.80
5705;DHT22;2877;48.238;11.160;2024-03-29T15:31:39;21.60;57.30
5705;DHT22;2877;48.238;11.160;2024-03-29T15:34:06;21.70;58.90
5705;DHT22;2877;48.238;11.160;2024-03-29T15:36:32;21.90;57.40
5705;DHT22;2877;48.238;11.160;2024-03-29T15:38:59;22.00;59.30
5705;DHT22;2877;48.238;11.160;2024-03-29T15:41:31;22.00;58.50
5705;DHT22;2877;48.238;11.160;2024-03-29T15:43:57;21.90;57.80
5705;DHT22;2877;48.238;11.160;2024-03-29T15:46:24;21.90;58.80
5705;DHT22;2877;48.238;11.160;2024-03-29T15:48:50;21.90;59.00
5705;DHT22;2877;48.238;11.160;2024-03-29T15:51:15;21.80;57.90
5705;DHT22;2877;48.238;11.160;2024-03-29T15:53:42;21.80;58.90
5705;DHT22;2877;48.238;11.160;2024-03-29T15:56:08;21.80;60.10